Time;durP1;ratioP1;P1;durP2;ratioP2;P2;SDS_P1;SDS_P2;PMS_P1;PMS_P2;Temp;Humidity;BMP_temperature;BMP_pressure;BME280_temperature;BME280_humidity;BME280_pressure;Samples;Min_cycle;Max_cycle;Signal;HPM_P1;HPM_P2
2022/10/20 00:02:15;;;;;;;16.93;8.20;;;;;;;2.21;100.00;100929.97;4223385;28;20242;-69
2022/10/20 00:04:42;;;;;;;18.97;8.10;;;;;;;2.25;100.00;100932.38;4217896;28;20642;-72
2022/10/20 00:07:08;;;;;;;21.30;8.20;;;;;;;2.31;100.00;100939.06;4217873;28;20232;-74
2022/10/20 00:09:35;;;;;;;13.33;7.40;;;;;;;2.26;100.00;100936.69;4220313;28;20600;-70
2022/10/20 00:12:01;;;;;;;19.00;8.10;;;;;;;2.16;100.00;100939.88;4217603;28;20388;-72
2022/10/20 00:14:27;;;;;;;23.00;8.60;;;;;;;2.10;100.00;100936.63;4222030;28;20332;-72
2022/10/20 00:16:54;;;;;;;22.83;9.13;;;;;;;2.16;100.00;100939.88;4202879;28;20223;-70
2022/10/20 00:19:20;;;;;;;18.57;8.83;;;;;;;2.10;100.00;100944.50;4217293;28;20373;-71
2022/10/20 00:21:47;;;;;;;26.63;8.60;;;;;;;2.06;100.00;100935.09;4221575;28;20230;-69
2022/10/20 00:24:14;;;;;;;16.43;8.13;;;;;;;2.09;100.00;100944.59;4221275;28;20508;-68
2022/10/20 00:26:40;;;;;;;21.07;8.00;;;;;;;2.06;100.00;100940.34;4223929;28;20302;-70
2022/10/20 00:29:07;;;;;;;17.57;7.33;;;;;;;2.06;100.00;100942.09;4224329;28;25333;-68
2022/10/20 00:31:33;;;;;;;17.37;7.83;;;;;;;2.06;100.00;100939.47;4202533;28;20242;-69
2022/10/20 00:34:00;;;;;;;14.60;7.23;;;;;;;2.07;100.00;100931.53;4203080;28;20259;-69
2022/10/20 00:36:26;;;;;;;15.97;7.40;;;;;;;2.02;100.00;100928.28;4215444;28;20353;-69
2022/10/20 00:39:01;;;;;;;15.30;6.30;;;;;;;2.02;100.00;100932.69;4220953;28;20232;-69
2022/10/20 00:41:28;;;;;;;18.50;7.40;;;;;;;1.96;100.00;100939.09;4219941;28;20244;-72
2022/10/20 00:43:56;;;;;;;14.70;6.77;;;;;;;1.86;100.00;100937.88;4211482;28;23125;-73
2022/10/20 00:46:26;;;;;;;14.70;5.97;;;;;;;1.97;100.00;100938.19;4205627;28;20234;-70
2022/10/20 00:48:56;;;;;;;20.43;7.30;;;;;;;1.90;100.00;100944.66;4234414;28;20712;-70
2022/10/20 00:51:25;;;;;;;17.57;6.10;;;;;;;1.98;100.00;100936.41;4216310;28;21352;-70
2022/10/20 00:54:10;;;;;;;16.63;6.57;;;;;;;1.79;100.00;100939.09;4220157;28;23005;-72
2022/10/20 00:56:39;;;;;;;20.27;9.43;;;;;;;1.73;100.00;100936.78;4226008;28;22813;-73
2022/10/20 00:59:06;;;;;;;17.10;8.07;;;;;;;1.77;100.00;100940.94;4221352;28;20228;-70
2022/10/20 01:01:33;;;;;;;17.93;7.83;;;;;;;1.71;100.00;100930.75;4194889;28;20308;-70
2022/10/20 01:04:00;;;;;;;18.77;7.70;;;;;;;1.67;100.00;100936.16;4219665;28;20326;-72
2022/10/20 01:06:27;;;;;;;21.93;7.93;;;;;;;1.67;100.00;100938.78;4210457;28;20259;-68
2022/10/20 01:08:54;;;;;;;18.07;8.17;;;;;;;1.66;100.00;100937.09;4216523;28;20258;-69
2022/10/20 01:11:46;;;;;;;18.03;8.70;;;;;;;1.60;100.00;100936.53;4213841;28;21742;-72
2022/10/20 01:14:32;;;;;;;17.70;8.80;;;;;;;1.61;100.00;100932.97;4221975;28;20307;-68
2022/10/20 01:17:23;;;;;;;19.47;7.40;;;;;;;1.61;100.00;100941.69;4203881;28;20630;-70
2022/10/20 01:20:04;;;;;;;15.83;7.33;;;;;;;1.69;100.00;100930.84;4235154;28;20232;-72
2022/10/20 01:22:49;;;;;;;17.83;8.07;;;;;;;1.71;100.00;100938.63;4213752;28;20244;-75
2022/10/20 01:25:40;;;;;;;20.73;8.00;;;;;;;1.68;100.00;100940.47;4220820;28;20236;-71
2022/10/20 01:28:26;;;;;;;21.23;8.87;;;;;;;1.68;100.00;100940.47;4236189;28;20413;-71
2022/10/20 01:30:57;;;;;;;21.87;8.73;;;;;;;1.67;100.00;100936.16;4232099;28;22552;-71
2022/10/20 01:33:41;;;;;;;16.23;7.57;;;;;;;1.68;100.00;100943.09;4207657;28;25772;-71
2022/10/20 01:36:24;;;;;;;19.83;8.27;;;;;;;1.62;100.00;100939.94;4204119;28;20315;-69
2022/10/20 01:38:58;;;;;;;19.97;7.93;;;;;;;1.70;100.00;100943.03;4235561;28;20586;-68
2022/10/20 01:41:32;;;;;;;14.47;7.73;;;;;;;1.68;100.00;100945.72;4226108;28;20236;-72
2022/10/20 01:44:02;;;;;;;16.77;7.27;;;;;;;1.74;100.00;100938.50;4218617;28;20243;-72
2022/10/20 01:46:29;;;;;;;18.13;6.87;;;;;;;1.75;100.00;100945.41;4221762;28;20305;-71
2022/10/20 01:48:57;;;;;;;16.63;6.27;;;;;;;1.73;100.00;100939.41;4227254;28;20239;-72
2022/10/20 01:51:23;;;;;;;14.80;7.40;;;;;;;1.69;100.00;100947.44;4217715;28;23717;-68
2022/10/20 01:53:50;;;;;;;18.17;7.90;;;;;;;1.67;100.00;100941.41;4220207;28;20235;-70
2022/10/20 01:56:20;;;;;;;16.60;6.73;;;;;;;1.66;100.00;100937.09;4227317;28;20817;-68
2022/10/20 01:59:26;;;;;;;17.30;6.57;;;;;;;1.66;100.00;100929.22;4221564;28;20422;-71
2022/10/20 02:02:15;;;;;;;13.90;6.10;;;;;;;1.68;100.00;100940.47;4219455;28;20235;-69
2022/10/20 02:05:08;;;;;;;14.87;5.87;;;;;;;1.62;100.00;100935.53;4215731;28;20262;-70
2022/10/20 02:07:35;;;;;;;14.60;6.70;;;;;;;1.47;100.00;100931.91;4225483;28;20228;-67
2022/10/20 02:10:12;;;;;;;13.07;5.97;;;;;;;1.40;100.00;100938.34;4223163;28;20246;-70
2022/10/20 02:12:41;;;;;;;11.03;5.57;;;;;;;1.35;100.00;100935.09;4231765;28;20239;-71
2022/10/20 02:15:09;;;;;;;12.90;5.60;;;;;;;1.42;100.00;100927.78;4217322;28;21924;-68
2022/10/20 02:17:37;;;;;;;12.33;5.77;;;;;;;1.43;100.00;100925.09;4227753;28;20243;-70
2022/10/20 02:20:05;;;;;;;14.77;5.37;;;;;;;1.35;100.00;100927.22;4220073;28;20244;-72
2022/10/20 02:22:32;;;;;;;13.07;6.47;;;;;;;1.33;100.00;100921.22;4227342;28;20250;-69
2022/10/20 02:24:59;;;;;;;11.50;5.43;;;;;;;1.29;100.00;100922.28;4233713;28;20265;-69
2022/10/20 02:27:29;;;;;;;16.17;6.13;;;;;;;1.20;100.00;100917.50;4233560;28;22012;-73
2022/10/20 02:30:00;;;;;;;13.47;6.47;;;;;;;1.22;100.00;100913.03;4208050;28;21517;-71
2022/10/20 02:32:27;;;;;;;12.80;5.93;;;;;;;1.21;100.00;100921.81;4213540;28;22467;-72
2022/10/20 02:34:53;;;;;;;14.20;5.87;;;;;;;1.25;100.00;100920.75;4234422;28;20236;-70
2022/10/20 02:37:20;;;;;;;15.03;6.70;;;;;;;1.38;100.00;100910.50;4227430;28;20431;-69
2022/10/20 02:39:46;;;;;;;20.27;6.50;;;;;;;1.33;100.00;100915.13;4234324;28;20240;-68
2022/10/20 02:42:15;;;;;;;17.53;6.87;;;;;;;1.24;100.00;100919.91;4214474;28;20602;-68
2022/10/20 02:44:42;;;;;;;15.23;6.40;;;;;;;1.33;100.00;100922.97;4223536;28;20326;-70
2022/10/20 02:47:08;;;;;;;16.20;7.03;;;;;;;1.36;100.00;100925.44;4232886;28;20266;-70
2022/10/20 02:49:35;;;;;;;19.67;7.77;;;;;;;1.40;100.00;100927.84;4225116;28;20317;-67
2022/10/20 02:52:02;;;;;;;13.43;6.50;;;;;;;1.38;100.00;100928.84;4228303;28;20236;-71
2022/10/20 02:54:28;;;;;;;12.90;6.70;;;;;;;1.40;100.00;100924.38;4224197;28;20576;-70
2022/10/20 02:56:55;;;;;;;14.40;7.13;;;;;;;1.36;100.00;100928.06;4221418;28;20822;-70
2022/10/20 02:59:21;;;;;;;19.33;7.37;;;;;;;1.29;100.00;100921.41;4223846;28;22359;-68
2022/10/20 03:01:50;;;;;;;19.07;6.80;;;;;;;1.24;100.00;100938.25;4241156;28;20239;-72
2022/10/20 03:04:17;;;;;;;14.43;7.73;;;;;;;1.16;100.00;100931.66;4214376;28;20246;-70
2022/10/20 03:06:43;;;;;;;14.50;6.67;;;;;;;1.12;100.00;100932.72;4230518;28;20314;-69
2022/10/20 03:09:10;;;;;;;17.33;7.37;;;;;;;1.07;100.00;100935.56;4226446;28;20240;-72
2022/10/20 03:11:36;;;;;;;15.27;7.63;;;;;;;1.10;100.00;100934.56;4227226;28;21874;-69
2022/10/20 03:14:03;;;;;;;18.60;7.50;;;;;;;1.13;100.00;100937.91;4220477;28;20583;-70
2022/10/20 03:16:30;;;;;;;16.37;7.80;;;;;;;1.13;100.00;100935.28;4243342;28;25222;-72
2022/10/20 03:18:57;;;;;;;22.27;7.73;;;;;;;1.12;100.00;100928.31;4217252;28;20277;-69
2022/10/20 03:21:30;;;;;;;19.43;8.10;;;;;;;1.11;100.00;100938.91;4218439;28;20228;-71
2022/10/20 03:23:57;;;;;;;23.90;8.03;;;;;;;1.08;100.00;100929.41;4226295;28;20770;-69
2022/10/20 03:26:24;;;;;;;18.53;8.30;;;;;;;1.04;100.00;100933.09;4229381;28;20242;-72
2022/10/20 03:28:51;;;;;;;16.77;8.07;;;;;;;1.00;100.00;100931.53;4244614;28;20522;-68
2022/10/20 03:31:17;;;;;;;21.70;8.10;;;;;;;1.03;100.00;100941.84;4216256;28;22400;-70
2022/10/20 03:33:43;;;;;;;22.73;8.47;;;;;;;0.97;100.00;100932.53;4220439;28;20293;-73
2022/10/20 03:36:10;;;;;;;24.57;9.30;;;;;;;0.96;100.00;100940.44;4222357;28;22900;-71
2022/10/20 03:38:39;;;;;;;20.23;9.03;;;;;;;0.96;100.00;100941.31;4242894;28;20241;-68
2022/10/20 03:41:06;;;;;;;21.77;9.17;;;;;;;0.97;100.00;100944.78;4226233;28;20247;-70
2022/10/20 03:43:33;;;;;;;21.03;9.23;;;;;;;0.80;100.00;100951.66;4239735;28;20349;-69
2022/10/20 03:46:09;;;;;;;20.60;8.73;;;;;;;0.82;100.00;100948.97;4228117;28;20358;-69
2022/10/20 03:48:36;;;;;;;24.00;9.67;;;;;;;0.71;100.00;100951.22;4224667;28;20282;-72
2022/10/20 03:51:03;;;;;;;18.17;8.50;;;;;;;0.73;100.00;100950.22;4219504;28;25702;-69
2022/10/20 03:53:31;;;;;;;24.03;9.13;;;;;;;0.79;100.00;100951.69;4215177;28;20344;-70
2022/10/20 03:55:57;;;;;;;24.20;10.23;;;;;;;0.70;100.00;100954.72;4221058;28;20275;-72
2022/10/20 03:58:24;;;;;;;20.03;8.53;;;;;;;0.70;100.00;100950.34;4215230;28;20233;-71
2022/10/20 04:00:50;;;;;;;24.47;9.57;;;;;;;0.70;100.00;100950.34;4221167;28;20600;-78
2022/10/20 04:03:17;;;;;;;24.83;9.87;;;;;;;0.67;100.00;100952.25;4228745;28;20237;-76
2022/10/20 04:05:43;;;;;;;29.37;10.07;;;;;;;0.71;100.00;100954.69;4209231;28;20244;-70
2022/10/20 04:08:10;;;;;;;18.03;9.03;;;;;;;0.81;100.00;100962.97;4223220;28;20313;-71
2022/10/20 04:10:37;;;;;;;20.43;10.37;;;;;;;0.72;100.00;100973.84;4230188;28;20240;-71
2022/10/20 04:13:03;;;;;;;26.73;11.90;;;;;;;0.56;100.00;100974.56;4214610;28;21863;-68
2022/10/20 04:15:30;;;;;;;33.97;13.17;;;;;;;0.60;100.00;100970.00;4201713;28;20232;-69
2022/10/20 04:17:57;;;;;;;30.30;13.27;;;;;;;0.43;100.00;100977.78;4213789;28;22270;-69
2022/10/20 04:20:24;;;;;;;33.57;13.23;;;;;;;0.41;100.00;100970.81;4220192;28;22331;-69
2022/10/20 04:22:50;;;;;;;32.17;12.67;;;;;;;0.39;100.00;100970.03;4216582;28;25541;-69
2022/10/20 04:25:17;;;;;;;23.37;11.37;;;;;;;0.54;100.00;100970.28;4217285;28;20239;-71
2022/10/20 04:27:43;;;;;;;25.57;11.20;;;;;;;0.48;100.00;100970.56;4220903;28;20309;-70
2022/10/20 04:30:10;;;;;;;31.17;13.13;;;;;;;0.44;100.00;100961.97;4218329;28;21262;-71
2022/10/20 04:32:36;;;;;;;30.70;11.93;;;;;;;0.52;100.00;100962.50;4215203;28;20239;-71
2022/10/20 04:35:03;;;;;;;27.43;11.53;;;;;;;0.52;100.00;100961.66;4213304;28;22045;-70
2022/10/20 04:37:33;;;;;;;31.97;11.80;;;;;;;0.55;100.00;100972.00;4214423;28;20321;-66
2022/10/20 04:40:00;;;;;;;31.03;12.50;;;;;;;0.52;100.00;100967.75;4220478;28;21186;-73
2022/10/20 04:42:27;;;;;;;26.87;11.67;;;;;;;0.60;100.00;100973.47;4223511;28;20671;-71
2022/10/20 04:44:53;;;;;;;30.27;12.43;;;;;;;0.58;100.00;100972.69;4216650;28;20250;-66
2022/10/20 04:47:20;;;;;;;34.93;12.57;;;;;;;0.64;100.00;100974.19;4219311;28;20232;-70
2022/10/20 04:49:46;;;;;;;40.87;13.53;;;;;;;0.55;100.00;100972.84;4238193;28;20362;-69
2022/10/20 04:52:13;;;;;;;120.43;17.20;;;;;;;0.56;100.00;100971.06;4233668;28;20467;-70
2022/10/20 04:54:39;;;;;;;75.60;15.63;;;;;;;0.55;100.00;100974.63;4200096;28;20892;-68
2022/10/20 04:57:06;;;;;;;67.73;15.43;;;;;;;0.60;100.00;100970.00;4224942;28;20247;-67
2022/10/20 04:59:32;;;;;;;104.37;16.50;;;;;;;0.59;100.00;100974.41;4226529;28;20240;-66
2022/10/20 05:01:59;;;;;;;72.13;14.83;;;;;;;0.60;100.00;100975.25;4216342;28;20230;-68
2022/10/20 05:04:25;;;;;;;36.87;14.33;;;;;;;0.68;100.00;100977.53;4215450;28;20240;-63
2022/10/20 05:06:52;;;;;;;33.27;12.60;;;;;;;0.77;100.00;100977.09;4233992;28;21552;-68
2022/10/20 05:09:18;;;;;;;45.57;17.10;;;;;;;0.73;100.00;100972.94;4223510;28;20249;-68
2022/10/20 05:11:45;;;;;;;35.43;13.03;;;;;;;0.78;100.00;100990.16;4229540;28;21169;-72
2022/10/20 05:14:12;;;;;;;72.97;14.57;;;;;;;0.68;100.00;100986.25;4214694;28;20235;-70
2022/10/20 05:16:38;;;;;;;137.60;15.77;;;;;;;0.61;100.00;100979.59;4221261;28;21381;-75
2022/10/20 05:19:04;;;;;;;50.23;14.33;;;;;;;0.63;100.00;100986.47;4220500;28;20279;-68
2022/10/20 05:21:31;;;;;;;80.63;18.57;;;;;;;1.14;100.00;100988.53;4215644;28;20228;-67
2022/10/20 05:23:59;;;;;;;172.90;20.53;;;;;;;1.15;100.00;100985.03;4219241;28;20307;-67
2022/10/20 05:26:28;;;;;;;73.03;16.77;;;;;;;1.29;100.00;100995.72;4219588;28;21133;-69
2022/10/20 05:28:55;;;;;;;223.83;22.53;;;;;;;1.08;100.00;101000.16;4230289;28;20224;-68
2022/10/20 05:31:22;;;;;;;206.30;23.57;;;;;;;0.99;100.00;100997.97;4220740;28;20234;-68
2022/10/20 05:33:51;;;;;;;128.47;20.10;;;;;;;0.96;100.00;101003.31;4217898;28;25264;-71
2022/10/20 05:36:20;;;;;;;184.10;21.13;;;;;;;0.92;100.00;101010.50;4229909;28;20300;-70
2022/10/20 05:38:48;;;;;;;219.00;22.07;;;;;;;0.78;100.00;101005.88;4216673;28;20686;-69
2022/10/20 05:41:17;;;;;;;120.30;21.23;;;;;;;0.77;100.00;101008.53;4214340;28;22690;-69
2022/10/20 05:43:48;;;;;;;134.17;21.07;;;;;;;1.03;100.00;101012.59;4211965;28;20232;-67
2022/10/20 05:46:15;;;;;;;174.47;20.37;;;;;;;0.96;100.00;101011.19;4221838;28;21032;-70
2022/10/20 05:48:42;;;;;;;191.27;21.00;;;;;;;1.01;100.00;101011.84;4220514;28;24094;-66
2022/10/20 05:51:14;;;;;;;108.00;32.90;;;;;;;1.19;100.00;101016.22;4212476;28;21757;-70
2022/10/20 05:53:41;;;;;;;139.40;23.17;;;;;;;1.18;100.00;101027.66;4216500;28;20232;-67
2022/10/20 05:56:11;;;;;;;59.40;18.63;;;;;;;1.25;100.00;101028.22;4220764;28;21038;-67
2022/10/20 05:58:38;;;;;;;221.33;23.40;;;;;;;1.22;100.00;101026.59;4224519;28;20329;-65
2022/10/20 06:01:46;;;;;;;129.67;19.73;;;;;;;1.25;100.00;101029.06;4220376;28;20231;-68
2022/10/20 06:04:19;;;;;;;55.87;15.80;;;;;;;1.44;100.00;101026.44;4226687;28;22191;-67
2022/10/20 06:06:47;;;;;;;83.40;17.63;;;;;;;1.44;100.00;101022.97;4226222;28;20578;-67
2022/10/20 06:09:14;;;;;;;38.10;14.53;;;;;;;1.47;100.00;101023.69;4220838;28;20963;-67
2022/10/20 06:11:40;;;;;;;44.77;14.50;;;;;;;1.68;100.00;101027.03;4215600;28;20234;-65
2022/10/20 06:14:07;;;;;;;72.80;15.53;;;;;;;1.59;100.00;101030.13;4224255;28;20642;-65
2022/10/20 06:16:34;;;;;;;30.70;13.97;;;;;;;1.55;100.00;101030.34;4234662;28;20330;-71
2022/10/20 06:19:01;;;;;;;34.40;15.43;;;;;;;1.76;100.00;101042.44;4228235;28;20227;-68
2022/10/20 06:21:29;;;;;;;27.07;14.60;;;;;;;1.85;100.00;101031.50;4235344;28;21687;-70
2022/10/20 06:23:58;;;;;;;34.33;15.27;;;;;;;2.20;100.00;101036.78;4205109;28;20243;-65
2022/10/20 06:26:35;;;;;;;51.77;19.00;;;;;;;2.14;100.00;101041.50;4238928;28;21726;-69
2022/10/20 06:29:03;;;;;;;37.77;16.40;;;;;;;2.31;100.00;101046.75;4227003;28;20223;-70
2022/10/20 06:31:39;;;;;;;70.33;18.30;;;;;;;2.13;100.00;101042.41;4229899;28;20341;-68
2022/10/20 06:34:08;;;;;;;75.27;17.13;;;;;;;2.28;100.00;101050.38;4220945;28;20232;-67
2022/10/20 06:36:36;;;;;;;47.37;17.60;;;;;;;2.21;100.00;101053.38;4227420;28;20329;-69
2022/10/20 06:39:05;;;;;;;63.23;17.80;;;;;;;2.20;100.00;101052.53;4231235;28;20231;-68
2022/10/20 06:41:32;;;;;;;53.30;15.40;;;;;;;2.01;100.00;101051.72;4229497;28;20279;-68
2022/10/20 06:43:59;;;;;;;52.43;14.57;;;;;;;1.94;100.00;101056.41;4243567;28;20232;-66
2022/10/20 06:46:28;;;;;;;132.00;17.67;;;;;;;1.69;100.00;101062.03;4229691;28;20410;-66
2022/10/20 06:48:54;;;;;;;127.37;17.80;;;;;;;1.77;100.00;101069.50;4230793;28;20235;-67
2022/10/20 06:51:24;;;;;;;179.30;18.20;;;;;;;1.49;100.00;101070.81;4216873;28;21094;-67
2022/10/20 06:53:51;;;;;;;152.90;18.47;;;;;;;1.35;100.00;101074.06;4219431;28;20668;-67
2022/10/20 06:56:23;;;;;;;135.03;19.57;;;;;;;1.36;100.00;101070.53;4220680;28;20229;-68
2022/10/20 06:58:52;;;;;;;100.13;19.37;;;;;;;1.62;100.00;101076.34;4231332;28;21352;-68
2022/10/20 07:01:24;;;;;;;63.77;17.63;;;;;;;1.70;100.00;101068.94;4222721;28;20416;-67
2022/10/20 07:03:54;;;;;;;78.77;20.17;;;;;;;2.18;100.00;101069.28;4219280;28;22662;-64
2022/10/20 07:06:27;;;;;;;108.53;19.90;;;;;;;2.52;100.00;101078.97;4209990;28;20240;-67
2022/10/20 07:08:55;;;;;;;69.13;18.67;;;;;;;2.77;100.00;101078.56;4219326;28;20281;-71
2022/10/20 07:11:26;;;;;;;104.37;18.67;;;;;;;2.92;100.00;101083.00;4221488;28;20303;-68
2022/10/20 07:13:53;;;;;;;33.23;15.23;;;;;;;3.17;100.00;101084.38;4253962;28;20491;-68
2022/10/20 07:16:22;;;;;;;40.93;16.10;;;;;;;3.16;100.00;101090.53;4228721;28;20553;-69
2022/10/20 07:18:49;;;;;;;49.23;14.53;;;;;;;3.36;100.00;101086.84;4224225;28;20308;-69
2022/10/20 07:21:20;;;;;;;88.13;13.37;;;;;;;3.50;100.00;101100.09;4248340;28;20234;-69
2022/10/20 07:23:48;;;;;;;58.17;12.63;;;;;;;3.46;100.00;101089.84;4239967;28;20338;-67
2022/10/20 07:26:19;;;;;;;102.60;13.63;;;;;;;3.49;100.00;101095.78;4223350;28;20418;-69
2022/10/20 07:28:52;;;;;;;63.10;12.27;;;;;;;3.84;100.00;101105.28;4230708;28;20228;-68
2022/10/20 07:31:27;;;;;;;25.63;11.50;;;;;;;4.57;100.00;101106.38;4249995;28;20242;-67
2022/10/20 07:33:54;;;;;;;39.47;11.47;;;;;;;5.02;100.00;101112.50;4225951;28;20266;-74
2022/10/20 07:36:41;;;;;;;27.70;11.47;;;;;;;5.15;99.81;101119.66;4236294;28;20254;-71
2022/10/20 07:39:12;;;;;;;20.57;10.50;;;;;;;5.66;97.17;101117.38;4249311;28;20550;-69
2022/10/20 07:41:39;;;;;;;24.43;10.60;;;;;;;6.45;95.20;101123.78;4272348;28;22199;-68
2022/10/20 07:44:06;;;;;;;23.10;11.00;;;;;;;7.85;90.45;101125.59;4262240;28;20310;-66
2022/10/20 07:46:33;;;;;;;38.63;10.83;;;;;;;8.88;80.26;101129.47;4236264;28;22814;-71
2022/10/20 07:49:00;;;;;;;17.73;9.70;;;;;;;8.39;81.44;101133.13;4227441;28;20240;-69
2022/10/20 07:51:46;;;;;;;31.00;10.23;;;;;;;8.63;79.03;101132.28;4247887;28;20537;-67
2022/10/20 07:54:13;;;;;;;21.80;9.73;;;;;;;11.28;70.56;101149.13;4232788;28;20358;-69
2022/10/20 07:56:41;;;;;;;21.17;9.33;;;;;;;13.22;55.57;101161.97;4249102;28;20233;-71
2022/10/20 07:59:09;;;;;;;20.53;11.00;;;;;;;12.26;57.74;101164.53;4245962;28;20239;-70
2022/10/20 08:01:37;;;;;;;26.47;11.30;;;;;;;10.78;63.82;101150.66;4246400;28;20235;-68
2022/10/20 08:04:03;;;;;;;21.30;10.20;;;;;;;9.54;71.12;101136.78;4268336;28;20235;-72
2022/10/20 08:06:32;;;;;;;20.50;11.80;;;;;;;9.05;74.95;101127.34;4260606;28;21804;-70
2022/10/20 08:08:59;;;;;;;20.60;10.27;;;;;;;10.01;73.39;101134.81;4271859;28;20292;-72
2022/10/20 08:11:26;;;;;;;23.70;10.57;;;;;;;10.80;68.25;101142.53;4264322;28;20244;-70
2022/10/20 08:13:52;;;;;;;17.67;9.83;;;;;;;11.33;64.65;101144.25;4314169;28;20247;-73
2022/10/20 08:16:20;;;;;;;19.10;10.17;;;;;;;12.28;64.61;101148.41;4364201;28;20343;-69
2022/10/20 08:18:50;;;;;;;24.13;10.00;;;;;;;15.37;48.66;101167.66;4365045;28;20409;-66
2022/10/20 08:21:23;;;;;;;22.40;10.13;;;;;;;16.32;45.35;101179.16;4362853;28;20416;-69
2022/10/20 08:23:50;;;;;;;29.07;10.50;;;;;;;16.71;43.39;101183.06;4316222;28;20445;-74
2022/10/20 08:26:26;;;;;;;21.00;9.10;;;;;;;16.39;43.40;101185.56;4276064;28;20230;-75
2022/10/20 08:28:54;;;;;;;22.70;9.07;;;;;;;13.90;49.46;101165.25;4312650;28;20227;-71
2022/10/20 08:31:21;;;;;;;24.07;9.97;;;;;;;12.91;56.91;101159.50;4291306;28;20274;-66
2022/10/20 08:33:48;;;;;;;22.93;9.77;;;;;;;13.22;55.98;101159.31;4277362;28;20250;-67
2022/10/20 08:36:18;;;;;;;22.00;9.80;;;;;;;12.46;58.15;101155.56;4249892;28;21204;-66
2022/10/20 08:38:44;;;;;;;20.97;10.27;;;;;;;11.87;61.33;101155.56;4239507;28;20288;-69
2022/10/20 08:41:17;;;;;;;28.63;10.83;;;;;;;10.80;65.98;101147.03;4225865;28;20393;-69
2022/10/20 08:43:46;;;;;;;17.70;9.37;;;;;;;9.67;71.21;101136.69;4205075;28;20298;-70
2022/10/20 08:46:15;;;;;;;24.10;10.93;;;;;;;8.51;78.56;101130.56;4236615;28;20233;-73
2022/10/20 08:48:42;;;;;;;19.67;10.23;;;;;;;8.35;81.12;101126.34;4243395;28;20613;-70
2022/10/20 08:51:17;;;;;;;21.30;10.80;;;;;;;8.41;84.35;101125.94;4243977;28;20658;-69
2022/10/20 08:53:45;;;;;;;20.77;10.27;;;;;;;8.44;84.73;101127.50;4256508;28;20807;-69
2022/10/20 08:56:13;;;;;;;20.73;10.73;;;;;;;9.32;80.77;101131.47;4215993;28;20323;-69
2022/10/20 08:58:43;;;;;;;23.67;11.50;;;;;;;9.58;77.39;101130.28;4242147;28;22191;-66
2022/10/20 09:01:33;;;;;;;24.17;12.57;;;;;;;9.48;77.88;101121.31;4243106;28;22140;-66
2022/10/20 09:04:03;;;;;;;21.83;10.93;;;;;;;9.37;77.94;101130.16;4209289;28;20239;-67
2022/10/20 09:06:31;;;;;;;22.57;10.87;;;;;;;8.90;79.76;101118.75;4219313;28;20257;-67
2022/10/20 09:08:59;;;;;;;23.53;10.37;;;;;;;8.75;82.58;101118.09;4210674;28;21776;-68
2022/10/20 09:11:35;;;;;;;17.90;9.53;;;;;;;8.80;81.96;101118.59;4260694;28;20252;-74
2022/10/20 09:14:02;;;;;;;18.43;9.17;;;;;;;8.71;82.87;101119.31;4218234;28;20644;-67
2022/10/20 09:16:37;;;;;;;17.30;9.70;;;;;;;9.22;81.99;101126.88;4230034;28;20595;-66
2022/10/20 09:19:23;;;;;;;19.40;9.17;;;;;;;9.77;79.31;101121.69;4240795;28;20235;-66
2022/10/20 09:21:52;;;;;;;22.17;9.73;;;;;;;9.91;78.38;101120.56;4220190;28;20274;-68
2022/10/20 09:24:20;;;;;;;18.83;9.30;;;;;;;9.85;79.09;101123.72;4204009;28;20236;-68
2022/10/20 09:26:49;;;;;;;20.10;8.77;;;;;;;9.15;81.68;101122.16;4238712;28;22651;-69
2022/10/20 09:29:35;;;;;;;17.97;8.87;;;;;;;9.35;81.78;101120.63;4230717;28;20236;-69
2022/10/20 09:32:02;;;;;;;28.30;10.67;;;;;;;9.76;82.25;101116.47;4231406;28;20373;-65
2022/10/20 09:34:48;;;;;;;24.83;11.80;;;;;;;10.23;80.16;101127.72;4258986;28;20310;-68
2022/10/20 09:37:17;;;;;;;19.37;11.10;;;;;;;9.86;80.74;101118.28;4243904;28;20235;-70
2022/10/20 09:39:52;;;;;;;22.13;11.17;;;;;;;9.90;80.88;101121.53;4259447;28;20236;-70
2022/10/20 09:42:36;;;;;;;25.33;11.17;;;;;;;9.91;81.08;101117.91;4215102;28;20246;-69
2022/10/20 09:45:15;;;;;;;22.43;9.93;;;;;;;9.26;84.10;101111.56;4223301;28;21720;-68
2022/10/20 09:47:45;;;;;;;15.30;8.53;;;;;;;9.25;82.52;101117.84;4239612;28;20661;-70
2022/10/20 09:50:51;;;;;;;17.23;8.43;;;;;;;9.43;82.16;101116.38;4247116;28;20237;-67
2022/10/20 09:53:20;;;;;;;13.93;6.77;;;;;;;9.71;80.32;101117.69;4187604;28;21119;-68
2022/10/20 09:55:49;;;;;;;18.43;6.60;;;;;;;10.10;78.39;101118.09;4200274;28;21957;-70
2022/10/20 09:58:22;;;;;;;16.53;8.57;;;;;;;9.92;77.84;101119.59;4217690;28;20376;-68
2022/10/20 10:01:12;;;;;;;19.77;8.20;;;;;;;9.89;77.91;101109.22;4225257;28;20234;-69
2022/10/20 10:03:50;;;;;;;19.43;8.50;;;;;;;10.30;76.11;101118.31;4224810;28;25278;-67
2022/10/20 10:06:31;;;;;;;12.73;5.40;;;;;;;10.29;74.42;101117.47;4243323;28;20269;-68
2022/10/20 10:09:00;;;;;;;5.93;2.53;;;;;;;10.09;69.22;101116.44;4235856;28;20298;-70
2022/10/20 10:11:34;;;;;;;7.40;3.30;;;;;;;9.89;73.75;101114.53;4231425;28;20625;-68
2022/10/20 10:14:01;;;;;;;9.87;3.80;;;;;;;10.06;73.79;101108.69;4234485;28;20259;-68
2022/10/20 10:16:39;;;;;;;7.87;3.80;;;;;;;10.44;71.26;101104.72;4244313;28;20599;-68
2022/10/20 10:19:06;;;;;;;8.27;4.30;;;;;;;10.60;72.86;101103.44;4240423;28;22344;-67
2022/10/20 10:21:50;;;;;;;7.73;4.17;;;;;;;10.79;69.04;101100.91;4300640;28;20236;-67
2022/10/20 10:24:35;;;;;;;7.13;3.53;;;;;;;10.96;68.36;101110.97;4240793;28;20263;-68
2022/10/20 10:27:02;;;;;;;7.40;3.70;;;;;;;10.94;69.13;101109.44;4222388;28;20238;-67
2022/10/20 10:29:35;;;;;;;6.80;3.57;;;;;;;11.04;67.18;101112.97;4231450;28;20229;-65
2022/10/20 10:32:14;;;;;;;7.33;3.30;;;;;;;10.97;68.38;101106.50;4251399;28;21139;-68
2022/10/20 10:35:07;;;;;;;7.60;3.47;;;;;;;11.37;65.95;101103.03;4258907;28;20806;-66
2022/10/20 10:37:34;;;;;;;7.97;3.40;;;;;;;11.19;65.06;101094.81;4277527;28;20663;-66
2022/10/20 10:40:10;;;;;;;6.27;2.93;;;;;;;11.55;64.86;101092.59;4286846;28;20231;-65
2022/10/20 10:42:50;;;;;;;7.13;3.53;;;;;;;11.37;65.27;101092.38;4289568;28;21571;-66
2022/10/20 10:45:38;;;;;;;5.27;2.50;;;;;;;11.46;62.98;101098.75;4254606;28;20234;-71
2022/10/20 10:48:34;;;;;;;6.23;2.40;;;;;;;11.59;61.34;101096.69;4241527;28;21120;-68
2022/10/20 10:51:04;;;;;;;5.50;2.17;;;;;;;11.67;58.31;101094.19;4269211;28;20302;-70
2022/10/20 10:53:55;;;;;;;5.93;3.10;;;;;;;11.90;58.80;101094.84;4287256;28;20286;-69
2022/10/20 10:56:31;;;;;;;7.43;2.43;;;;;;;12.11;58.67;101092.06;4275802;28;20441;-69
2022/10/20 10:59:05;;;;;;;4.77;2.50;;;;;;;11.69;58.74;101086.91;4262592;28;20230;-68
2022/10/20 11:01:37;;;;;;;2.57;1.70;;;;;;;11.94;56.59;101084.72;4246347;28;20347;-68
2022/10/20 11:04:04;;;;;;;6.87;1.70;;;;;;;11.45;54.29;101073.06;4276637;28;22986;-66
2022/10/20 11:06:41;;;;;;;5.63;1.93;;;;;;;11.68;56.20;101079.84;4244617;28;26104;-71
2022/10/20 11:09:38;;;;;;;3.53;2.00;;;;;;;12.23;54.62;101076.75;4227438;28;21689;-67
2022/10/20 11:12:21;;;;;;;4.23;1.80;;;;;;;12.20;54.81;101077.88;4258294;28;20232;-67
2022/10/20 11:15:15;;;;;;;7.83;1.60;;;;;;;11.82;56.08;101070.63;4263684;28;20243;-69
2022/10/20 11:18:16;;;;;;;4.40;1.67;;;;;;;12.04;55.04;101064.25;4240097;28;20463;-69
2022/10/20 11:20:54;;;;;;;5.10;1.67;;;;;;;12.02;54.16;101067.06;4237420;28;20353;-70
2022/10/20 11:23:50;;;;;;;3.20;1.63;;;;;;;11.69;54.19;101059.41;4243716;28;23156;-70
2022/10/20 11:26:31;;;;;;;2.10;1.40;;;;;;;11.01;56.30;101054.66;4232694;28;20262;-69
2022/10/20 11:29:00;;;;;;;4.57;1.40;;;;;;;10.72;56.62;101046.50;4280051;28;20240;-72
2022/10/20 11:31:35;;;;;;;5.93;1.40;;;;;;;10.68;57.18;101042.44;4253618;28;20823;-69
2022/10/20 11:34:05;;;;;;;2.73;1.10;;;;;;;10.61;56.44;101035.94;4243023;28;20227;-68